Time;durP1;ratioP1;P1;durP2;ratioP2;P2;SDS_P1;SDS_P2;PMS_P1;PMS_P2;Temp;Humidity;BMP_temperature;BMP_pressure;BME280_temperature;BME280_humidity;BME280_pressure;Samples;Min_cycle;Max_cycle;Signal;HPM_P1;HPM_P2
2022/06/26 00:01:39;;;;;;;13.90;13.10;;;;;;;;;;5056558;28;20039;-63
2022/06/26 00:04:04;;;;;;;13.48;12.68;;;;;;;;;;5054427;28;20437;-63
2022/06/26 00:06:29;;;;;;;15.43;14.52;;;;;;;;;;5056410;28;20029;-63
2022/06/26 00:08:55;;;;;;;12.50;11.77;;;;;;;;;;5053669;28;20021;-64
2022/06/26 00:11:20;;;;;;;12.77;12.02;;;;;;;;;;5054115;28;20021;-64
2022/06/26 00:13:46;;;;;;;14.88;14.00;;;;;;;;;;5053571;28;20040;-64
2022/06/26 00:16:11;;;;;;;11.98;11.27;;;;;;;;;;5055239;28;20060;-64
2022/06/26 00:18:37;;;;;;;14.93;14.05;;;;;;;;;;5051062;28;20040;-64
2022/06/26 00:21:03;;;;;;;13.90;13.10;;;;;;;;;;5054329;28;20518;-64
2022/06/26 00:23:28;;;;;;;13.20;12.40;;;;;;;;;;5055170;28;20036;-64
2022/06/26 00:25:54;;;;;;;13.40;12.60;;;;;;;;;;5053714;28;20039;-64
2022/06/26 00:28:19;;;;;;;12.48;11.70;;;;;;;;;;5053200;28;20036;-65
2022/06/26 00:30:45;;;;;;;16.38;15.48;;;;;;;;;;5055821;28;20052;-63
2022/06/26 00:33:11;;;;;;;12.27;11.57;;;;;;;;;;5054894;28;20362;-65
2022/06/26 00:35:36;;;;;;;13.35;12.55;;;;;;;;;;5053612;28;20037;-65
2022/06/26 00:38:01;;;;;;;13.93;13.13;;;;;;;;;;5053714;28;20032;-67
2022/06/26 00:40:27;;;;;;;15.10;14.25;;;;;;;;;;5056059;28;20116;-66
2022/06/26 00:42:52;;;;;;;13.23;12.43;;;;;;;;;;5054442;28;20433;-66
2022/06/26 00:45:18;;;;;;;14.40;13.60;;;;;;;;;;5052906;28;20147;-67
2022/06/26 00:47:43;;;;;;;15.75;14.85;;;;;;;;;;5057329;28;20132;-65
2022/06/26 00:50:09;;;;;;;16.05;15.15;;;;;;;;;;5056108;28;20063;-67
2022/06/26 00:52:36;;;;;;;17.70;16.70;;;;;;;;;;5053360;28;20029;-66
2022/06/26 00:55:02;;;;;;;16.15;15.25;;;;;;;;;;5054036;28;20079;-66
2022/06/26 00:57:28;;;;;;;18.63;17.58;;;;;;;;;;5054175;28;20457;-65
2022/06/26 00:59:56;;;;;;;18.38;17.38;;;;;;;;;;5054914;28;20120;-65
2022/06/26 01:02:22;;;;;;;16.27;15.38;;;;;;;;;;5054198;28;20025;-65
2022/06/26 01:04:47;;;;;;;17.90;16.90;;;;;;;;;;5056154;28;20610;-65
2022/06/26 01:07:13;;;;;;;17.27;16.33;;;;;;;;;;5055013;28;20128;-65
2022/06/26 01:09:39;;;;;;;17.33;16.33;;;;;;;;;;5053539;28;20097;-65
2022/06/26 01:12:05;;;;;;;14.52;13.73;;;;;;;;;;5053866;28;20665;-65
2022/06/26 01:14:31;;;;;;;19.70;18.60;;;;;;;;;;5052166;28;20052;-64
2022/06/26 01:16:56;;;;;;;14.70;13.88;;;;;;;;;;5053692;28;20099;-65
2022/06/26 01:19:22;;;;;;;14.57;13.77;;;;;;;;;;5053997;28;20390;-65
2022/06/26 01:21:47;;;;;;;16.73;15.82;;;;;;;;;;5053930;28;20051;-65
2022/06/26 01:24:14;;;;;;;20.98;19.88;;;;;;;;;;5054867;28;20112;-64
2022/06/26 01:26:40;;;;;;;17.58;16.58;;;;;;;;;;5053436;28;20037;-65
2022/06/26 01:29:06;;;;;;;15.75;14.85;;;;;;;;;;5053246;28;20059;-64
2022/06/26 01:31:34;;;;;;;16.60;15.70;;;;;;;;;;5054646;28;20025;-65
2022/06/26 01:34:02;;;;;;;14.23;13.43;;;;;;;;;;5055233;28;20037;-65
2022/06/26 01:36:28;;;;;;;17.65;16.65;;;;;;;;;;5055566;28;20039;-64
2022/06/26 01:38:53;;;;;;;15.63;14.73;;;;;;;;;;5053615;28;20033;-64
2022/06/26 01:41:18;;;;;;;13.73;12.82;;;;;;;;;;5055206;28;20055;-64
2022/06/26 01:43:44;;;;;;;14.38;13.57;;;;;;;;;;5059043;28;20090;-64
2022/06/26 01:46:09;;;;;;;13.85;13.05;;;;;;;;;;5061682;28;20029;-64
2022/06/26 01:48:38;;;;;;;18.42;17.42;;;;;;;;;;5057230;28;20081;-65
2022/06/26 01:51:04;;;;;;;16.55;15.65;;;;;;;;;;5058260;28;20029;-65
2022/06/26 01:53:30;;;;;;;14.23;13.43;;;;;;;;;;5055610;28;20048;-65
2022/06/26 01:55:56;;;;;;;16.70;15.80;;;;;;;;;;5054447;28;20024;-65
2022/06/26 01:58:21;;;;;;;18.48;17.48;;;;;;;;;;5058861;28;20104;-65
2022/06/26 02:00:47;;;;;;;23.98;22.67;;;;;;;;;;5057680;28;20048;-65
2022/06/26 02:03:16;;;;;;;24.23;22.92;;;;;;;;;;5056727;28;20033;-64
2022/06/26 02:05:41;;;;;;;18.83;17.80;;;;;;;;;;5055638;28;20029;-65
2022/06/26 02:08:08;;;;;;;19.35;18.27;;;;;;;;;;5056732;28;20025;-65
2022/06/26 02:13:36;;;;;;;20.75;19.65;;;;;;;;;;5057767;28;20082;-65
2022/06/26 02:16:14;;;;;;;19.13;18.10;;;;;;;;;;5057721;28;20028;-64
2022/06/26 02:18:41;;;;;;;23.85;22.58;;;;;;;;;;5058302;28;20460;-65
2022/06/26 02:21:09;;;;;;;31.65;30.02;;;;;;;;;;5058106;28;20054;-64
2022/06/26 02:23:36;;;;;;;27.63;26.17;;;;;;;;;;5055172;28;20320;-64
2022/06/26 02:26:02;;;;;;;27.33;25.92;;;;;;;;;;5056288;28;20040;-64
2022/06/26 02:28:28;;;;;;;31.40;29.75;;;;;;;;;;5050602;28;20121;-64
2022/06/26 02:30:53;;;;;;;29.67;28.13;;;;;;;;;;5052775;28;20127;-64
2022/06/26 02:33:19;;;;;;;19.90;18.80;;;;;;;;;;5055105;28;20521;-63
2022/06/26 02:35:46;;;;;;;23.50;22.23;;;;;;;;;;5055162;28;20037;-64
2022/06/26 02:38:11;;;;;;;27.05;25.63;;;;;;;;;;5057054;28;20039;-65
2022/06/26 02:40:37;;;;;;;26.77;25.38;;;;;;;;;;5055267;28;20030;-65
2022/06/26 02:43:02;;;;;;;27.35;25.95;;;;;;;;;;5055362;28;20032;-64
2022/06/26 02:45:29;;;;;;;24.10;22.83;;;;;;;;;;5053044;28;20135;-65
2022/06/26 02:47:54;;;;;;;28.48;26.98;;;;;;;;;;5053688;28;20112;-65
2022/06/26 02:50:19;;;;;;;26.33;24.92;;;;;;;;;;5056812;28;20488;-65
2022/06/26 02:52:45;;;;;;;29.85;28.30;;;;;;;;;;5055873;28;20035;-65
2022/06/26 02:55:11;;;;;;;27.75;26.27;;;;;;;;;;5055202;28;20044;-65
2022/06/26 02:57:37;;;;;;;30.80;29.20;;;;;;;;;;5057495;28;20040;-65
2022/06/26 03:00:05;;;;;;;30.45;28.85;;;;;;;;;;5058094;28;20036;-65
2022/06/26 03:02:30;;;;;;;27.15;25.75;;;;;;;;;;5054885;28;20044;-65
2022/06/26 03:04:56;;;;;;;29.50;27.92;;;;;;;;;;5057430;28;20037;-65
2022/06/26 03:07:21;;;;;;;32.63;30.92;;;;;;;;;;5053639;28;20104;-65
2022/06/26 03:09:47;;;;;;;31.42;29.83;;;;;;;;;;5056946;28;20025;-65
2022/06/26 03:12:13;;;;;;;29.10;27.60;;;;;;;;;;5057199;28;20032;-65
2022/06/26 03:14:38;;;;;;;28.92;27.42;;;;;;;;;;5055717;28;20048;-65
2022/06/26 03:17:04;;;;;;;29.52;27.98;;;;;;;;;;5054725;28;20090;-65
2022/06/26 03:19:29;;;;;;;31.88;30.23;;;;;;;;;;5056725;28;20052;-65
2022/06/26 03:21:55;;;;;;;29.70;28.15;;;;;;;;;;5054266;28;20029;-65
2022/06/26 03:24:20;;;;;;;26.90;25.50;;;;;;;;;;5054071;28;20100;-65
2022/06/26 03:26:46;;;;;;;28.02;26.52;;;;;;;;;;5055077;28;20100;-65
2022/06/26 03:29:11;;;;;;;33.65;31.95;;;;;;;;;;5054302;28;20127;-65
2022/06/26 03:31:37;;;;;;;21.40;20.20;;;;;;;;;;5054603;28;20433;-66
2022/06/26 03:34:03;;;;;;;25.55;24.17;;;;;;;;;;5052906;28;20064;-65
2022/06/26 03:36:29;;;;;;;23.77;22.48;;;;;;;;;;5053885;28;20127;-66
2022/06/26 03:38:54;;;;;;;26.63;25.20;;;;;;;;;;5054824;28;20052;-65
2022/06/26 03:41:20;;;;;;;21.02;19.83;;;;;;;;;;5054764;28;20111;-65
2022/06/26 03:43:46;;;;;;;20.60;19.50;;;;;;;;;;5058424;28;20532;-65
2022/06/26 03:46:11;;;;;;;20.23;19.13;;;;;;;;;;5056007;28;20040;-65
2022/06/26 03:48:37;;;;;;;16.92;16.00;;;;;;;;;;5057715;28;20465;-65
2022/06/26 03:51:04;;;;;;;20.17;19.08;;;;;;;;;;5054645;28;20029;-65
2022/06/26 03:53:30;;;;;;;17.27;16.27;;;;;;;;;;5054807;28;20036;-65
2022/06/26 03:55:55;;;;;;;16.30;15.38;;;;;;;;;;5056324;28;20458;-65
2022/06/26 03:58:21;;;;;;;18.90;17.90;;;;;;;;;;5055541;28;20044;-65
2022/06/26 04:00:46;;;;;;;18.45;17.45;;;;;;;;;;5054964;28;20649;-65
2022/06/26 04:03:12;;;;;;;15.82;14.93;;;;;;;;;;5054164;28;20029;-64
2022/06/26 04:05:37;;;;;;;18.83;17.83;;;;;;;;;;5056317;28;20061;-64
2022/06/26 04:08:03;;;;;;;16.05;15.15;;;;;;;;;;5060286;28;20042;-64
2022/06/26 04:10:29;;;;;;;17.13;16.20;;;;;;;;;;5052977;28;20041;-64
2022/06/26 04:13:01;;;;;;;17.73;16.73;;;;;;;;;;5053422;28;20103;-63
2022/06/26 04:15:28;;;;;;;17.67;16.67;;;;;;;;;;5054447;28;20041;-65
2022/06/26 04:17:54;;;;;;;16.60;15.70;;;;;;;;;;5055346;28;20439;-65
2022/06/26 04:20:20;;;;;;;18.42;17.42;;;;;;;;;;5053925;28;20043;-63
2022/06/26 04:22:57;;;;;;;16.50;15.60;;;;;;;;;;5055201;28;20029;-64
2022/06/26 04:25:23;;;;;;;18.30;17.30;;;;;;;;;;5053918;28;20071;-65
2022/06/26 04:27:49;;;;;;;17.63;16.63;;;;;;;;;;5055204;28;20072;-63
2022/06/26 04:30:15;;;;;;;17.52;16.52;;;;;;;;;;5053980;28;20120;-63
2022/06/26 04:32:40;;;;;;;16.98;15.98;;;;;;;;;;5053040;28;20534;-64
2022/06/26 04:35:06;;;;;;;16.77;15.82;;;;;;;;;;5055821;28;20040;-64
2022/06/26 04:37:32;;;;;;;16.90;15.77;;;;;;;;;;5054295;28;20562;-64
2022/06/26 04:39:57;;;;;;;21.05;19.95;;;;;;;;;;5054450;28;20166;-64
2022/06/26 04:42:22;;;;;;;17.88;16.88;;;;;;;;;;5048991;28;20064;-64
2022/06/26 04:44:48;;;;;;;20.23;19.13;;;;;;;;;;5052415;28;20037;-64
2022/06/26 04:47:13;;;;;;;20.50;19.40;;;;;;;;;;5054177;28;20037;-65
2022/06/26 04:49:38;;;;;;;22.83;21.63;;;;;;;;;;5055247;28;20033;-64
2022/06/26 04:52:04;;;;;;;19.02;18.02;;;;;;;;;;5051926;28;20089;-63
2022/06/26 04:54:29;;;;;;;20.67;19.58;;;;;;;;;;5049655;28;20098;-63
2022/06/26 04:56:55;;;;;;;19.88;18.77;;;;;;;;;;5051575;28;20098;-65
2022/06/26 04:59:20;;;;;;;19.92;18.83;;;;;;;;;;5052990;28;20115;-65
2022/06/26 05:01:45;;;;;;;18.50;17.50;;;;;;;;;;5049738;28;20437;-64
2022/06/26 05:04:11;;;;;;;20.85;19.67;;;;;;;;;;5056143;28;20029;-63
2022/06/26 05:06:37;;;;;;;19.67;18.58;;;;;;;;;;5053888;28;20023;-63
2022/06/26 05:09:02;;;;;;;20.23;19.13;;;;;;;;;;5052598;28;20098;-64
2022/06/26 05:11:27;;;;;;;27.10;25.70;;;;;;;;;;5054033;28;20098;-64
2022/06/26 05:13:54;;;;;;;18.58;17.58;;;;;;;;;;5054169;28;20627;-64
2022/06/26 05:16:19;;;;;;;16.55;15.65;;;;;;;;;;5058936;28;20068;-64
2022/06/26 05:18:44;;;;;;;16.42;15.52;;;;;;;;;;5061019;28;20059;-63
2022/06/26 05:21:10;;;;;;;24.67;23.38;;;;;;;;;;5060161;28;20037;-64
2022/06/26 05:23:35;;;;;;;30.42;28.83;;;;;;;;;;5059066;28;20029;-63
2022/06/26 05:26:00;;;;;;;30.23;28.63;;;;;;;;;;5056505;28;20408;-64
2022/06/26 05:28:26;;;;;;;34.13;32.38;;;;;;;;;;5056374;28;20033;-63
2022/06/26 05:30:51;;;;;;;35.17;33.38;;;;;;;;;;5059411;28;20079;-64
2022/06/26 05:33:16;;;;;;;34.40;32.60;;;;;;;;;;5059028;28;20316;-64
2022/06/26 05:35:42;;;;;;;31.98;30.27;;;;;;;;;;5059706;28;20029;-63
2022/06/26 05:38:07;;;;;;;31.05;29.45;;;;;;;;;;5061806;28;20039;-64
2022/06/26 05:40:33;;;;;;;30.98;29.38;;;;;;;;;;5059145;28;20498;-64
2022/06/26 05:42:58;;;;;;;32.75;31.05;;;;;;;;;;5056879;28;20047;-64
2022/06/26 05:45:24;;;;;;;31.88;30.23;;;;;;;;;;5057184;28;20048;-64
2022/06/26 05:47:49;;;;;;;33.15;31.38;;;;;;;;;;5055007;28;20056;-64
2022/06/26 05:50:15;;;;;;;32.25;30.55;;;;;;;;;;5055769;28;20474;-64
2022/06/26 05:52:41;;;;;;;33.72;32.03;;;;;;;;;;5057457;28;20036;-64
2022/06/26 05:55:07;;;;;;;21.60;20.42;;;;;;;;;;5053100;28;20060;-63
2022/06/26 05:57:33;;;;;;;27.10;25.70;;;;;;;;;;5055047;28;20047;-63
2022/06/26 05:59:58;;;;;;;27.33;25.92;;;;;;;;;;5057172;28;20036;-63
2022/06/26 06:02:24;;;;;;;26.88;25.48;;;;;;;;;;5052850;28;20060;-64
2022/06/26 06:04:49;;;;;;;27.35;25.90;;;;;;;;;;5056138;28;20029;-64
2022/06/26 06:07:15;;;;;;;29.48;27.98;;;;;;;;;;5057410;28;20055;-63
2022/06/26 06:09:40;;;;;;;35.20;33.40;;;;;;;;;;5056181;28;20048;-63
2022/06/26 06:12:06;;;;;;;31.33;29.73;;;;;;;;;;5057854;28;20028;-63
2022/06/26 06:14:31;;;;;;;25.60;24.25;;;;;;;;;;5061784;28;20636;-63
2022/06/26 06:16:56;;;;;;;20.00;18.90;;;;;;;;;;5056510;28;20621;-63
2022/06/26 06:19:22;;;;;;;24.17;22.88;;;;;;;;;;5054950;28;20040;-63
2022/06/26 06:21:47;;;;;;;27.23;25.83;;;;;;;;;;5057586;28;20354;-63
2022/06/26 06:24:13;;;;;;;24.45;23.15;;;;;;;;;;5057026;28;20475;-63
2022/06/26 06:26:38;;;;;;;25.52;24.23;;;;;;;;;;5057300;28;20107;-63
2022/06/26 06:29:03;;;;;;;26.90;25.50;;;;;;;;;;5055944;28;20048;-63
2022/06/26 06:31:29;;;;;;;16.95;16.02;;;;;;;;;;5055708;28;20543;-63
2022/06/26 06:33:54;;;;;;;21.33;20.20;;;;;;;;;;5058971;28;20074;-64
2022/06/26 06:36:19;;;;;;;21.73;20.55;;;;;;;;;;5057608;28;20025;-64
2022/06/26 06:38:45;;;;;;;26.80;25.35;;;;;;;;;;5058769;28;20032;-64
2022/06/26 06:41:10;;;;;;;30.25;28.65;;;;;;;;;;5060637;28;20055;-64
2022/06/26 06:43:36;;;;;;;29.63;28.13;;;;;;;;;;5060120;28;20048;-64
2022/06/26 06:46:01;;;;;;;30.00;28.42;;;;;;;;;;5051289;28;20122;-65
2022/06/26 06:48:26;;;;;;;25.13;23.83;;;;;;;;;;5054021;28;20340;-64
2022/06/26 06:50:53;;;;;;;24.85;23.55;;;;;;;;;;5057341;28;20029;-64
2022/06/26 06:53:19;;;;;;;24.20;22.90;;;;;;;;;;5054050;28;20118;-63
2022/06/26 06:55:45;;;;;;;23.15;21.80;;;;;;;;;;5057089;28;20029;-64
2022/06/26 06:58:11;;;;;;;17.23;16.27;;;;;;;;;;5051228;28;20051;-64
2022/06/26 07:00:36;;;;;;;19.27;18.05;;;;;;;;;;5053716;28;20039;-63
2022/06/26 07:03:03;;;;;;;16.17;15.27;;;;;;;;;;5057407;28;20090;-64
2022/06/26 07:05:29;;;;;;;17.15;16.20;;;;;;;;;;5057465;28;20041;-63
2022/06/26 07:07:55;;;;;;;18.45;17.45;;;;;;;;;;5053396;28;20037;-63
2022/06/26 07:10:20;;;;;;;17.40;16.42;;;;;;;;;;5051879;28;20374;-64
2022/06/26 07:12:57;;;;;;;17.17;16.23;;;;;;;;;;5052684;28;20242;-63
2022/06/26 07:15:24;;;;;;;20.20;19.10;;;;;;;;;;5053740;28;20128;-64
2022/06/26 07:17:49;;;;;;;16.10;15.20;;;;;;;;;;5054360;28;20493;-63
2022/06/26 07:20:15;;;;;;;18.08;17.08;;;;;;;;;;5055985;28;20048;-64
2022/06/26 07:22:40;;;;;;;19.70;18.50;;;;;;;;;;5052387;28;20086;-65
2022/06/26 07:25:06;;;;;;;20.27;19.17;;;;;;;;;;5051530;28;20086;-67
2022/06/26 07:27:32;;;;;;;29.27;27.77;;;;;;;;;;5056321;28;20812;-65
2022/06/26 07:29:57;;;;;;;34.90;33.10;;;;;;;;;;5056158;28;20064;-65
2022/06/26 07:32:23;;;;;;;20.55;19.38;;;;;;;;;;5053763;28;20035;-65
2022/06/26 07:34:48;;;;;;;35.88;34.03;;;;;;;;;;5054480;28;20482;-65
2022/06/26 07:37:14;;;;;;;37.72;35.83;;;;;;;;;;5053664;28;20083;-66
2022/06/26 07:39:40;;;;;;;39.50;37.50;;;;;;;;;;5053806;28;20469;-66
2022/06/26 07:42:05;;;;;;;39.97;37.92;;;;;;;;;;5050029;28;20031;-65
2022/06/26 07:44:31;;;;;;;43.25;41.05;;;;;;;;;;5055470;28;20035;-65
2022/06/26 07:47:00;;;;;;;50.47;47.95;;;;;;;;;;5054318;28;20102;-65
2022/06/26 07:49:25;;;;;;;60.95;57.90;;;;;;;;;;5053937;28;20698;-65
2022/06/26 07:51:51;;;;;;;52.85;50.20;;;;;;;;;;5054714;28;20052;-65
2022/06/26 07:54:16;;;;;;;55.55;52.75;;;;;;;;;;5056730;28;21530;-65
2022/06/26 07:56:42;;;;;;;53.75;51.05;;;;;;;;;;5056055;28;20111;-65
2022/06/26 07:59:08;;;;;;;52.50;49.70;;;;;;;;;;5057118;28;20043;-65
2022/06/26 08:01:34;;;;;;;50.20;47.67;;;;;;;;;;5056501;28;20580;-65
2022/06/26 08:04:00;;;;;;;54.00;51.30;;;;;;;;;;5054568;28;20036;-66
2022/06/26 08:06:26;;;;;;;35.92;34.08;;;;;;;;;;5054952;28;20078;-65
2022/06/26 08:08:51;;;;;;;48.22;45.83;;;;;;;;;;5055762;28;20033;-67
2022/06/26 08:11:17;;;;;;;45.95;43.65;;;;;;;;;;5054359;28;20074;-65
2022/06/26 08:13:42;;;;;;;46.75;44.35;;;;;;;;;;5054837;28;20028;-66
2022/06/26 08:16:08;;;;;;;46.03;43.72;;;;;;;;;;5057042;28;20177;-65
2022/06/26 08:18:33;;;;;;;35.97;34.08;;;;;;;;;;5056283;28;20067;-64
2022/06/26 08:22:00;;;;;;;36.75;34.85;;;;;;;;;;5053293;28;20079;-66
2022/06/26 08:23:44;;;;;;;41.75;39.65;;;;;;;;;;5057126;28;20178;-67
2022/06/26 08:26:09;;;;;;;44.67;42.42;;;;;;;;;;5055638;28;20119;-66
2022/06/26 08:28:36;;;;;;;48.88;46.40;;;;;;;;;;5057583;28;20190;-66
2022/06/26 08:31:01;;;;;;;34.20;32.42;;;;;;;;;;5056516;28;20136;-66
2022/06/26 08:33:27;;;;;;;40.50;38.40;;;;;;;;;;5055417;28;20139;-66
2022/06/26 08:35:52;;;;;;;48.67;45.78;;;;;;;;;;5054246;28;20036;-66
2022/06/26 08:38:17;;;;;;;45.20;42.90;;;;;;;;;;5056644;28;20433;-66
2022/06/26 08:40:44;;;;;;;35.58;33.78;;;;;;;;;;5054986;28;20086;-65
2022/06/26 08:43:10;;;;;;;47.30;44.90;;;;;;;;;;5053507;28;20037;-65
2022/06/26 08:45:35;;;;;;;47.90;45.50;;;;;;;;;;5050201;28;20055;-66
2022/06/26 08:48:02;;;;;;;54.22;51.53;;;;;;;;;;5052099;28;20055;-64
2022/06/26 08:50:29;;;;;;;49.17;46.67;;;;;;;;;;5057257;28;20029;-64
2022/06/26 08:52:55;;;;;;;47.92;45.53;;;;;;;;;;5053391;28;20149;-64
2022/06/26 08:55:22;;;;;;;48.20;45.78;;;;;;;;;;5055887;28;20462;-64
2022/06/26 08:57:48;;;;;;;50.78;48.17;;;;;;;;;;5055016;28;20036;-64
2022/06/26 09:00:15;;;;;;;141.73;134.73;;;;;;;;;;5056775;28;20037;-64
2022/06/26 09:02:40;;;;;;;60.83;57.75;;;;;;;;;;5055782;28;20078;-64
2022/06/26 09:05:06;;;;;;;47.58;45.17;;;;;;;;;;5057694;28;20127;-65
2022/06/26 09:07:31;;;;;;;90.32;85.88;;;;;;;;;;5053169;28;20070;-64
2022/06/26 09:09:57;;;;;;;190.27;180.98;;;;;;;;;;5053576;28;20090;-64
2022/06/26 09:12:22;;;;;;;78.43;74.55;;;;;;;;;;5054468;28;20362;-64
2022/06/26 09:14:52;;;;;;;72.50;68.90;;;;;;;;;;5053967;28;20127;-64
2022/06/26 09:17:22;;;;;;;200.18;190.38;;;;;;;;;;5053805;28;20485;-63
2022/06/26 09:19:50;;;;;;;;;;;;;;;;;;5053285;28;20037;-63
2022/06/26 09:22:16;;;;;;;71.78;68.20;;;;;;;;;;5056763;28;20025;-63
2022/06/26 09:24:53;;;;;;;158.05;150.30;;;;;;;;;;5052936;28;20021;-64
2022/06/26 09:27:19;;;;;;;232.95;221.52;;;;;;;;;;5052184;28;20029;-63
2022/06/26 09:29:50;;;;;;;113.75;108.15;;;;;;;;;;5053538;28;20037;-63
2022/06/26 09:32:16;;;;;;;228.57;217.43;;;;;;;;;;5056607;28;20115;-63
2022/06/26 09:34:44;;;;;;;210.07;199.77;;;;;;;;;;5054954;28;20025;-64
2022/06/26 09:37:10;;;;;;;196.88;187.23;;;;;;;;;;5057422;28;20067;-62
2022/06/26 09:39:35;;;;;;;247.00;234.90;;;;;;;;;;5051393;28;20075;-64
2022/06/26 09:42:22;;;;;;;259.50;246.80;;;;;;;;;;5052878;28;20572;-62
2022/06/26 09:44:54;;;;;;;269.92;256.65;;;;;;;;;;5050777;28;20025;-62
2022/06/26 09:47:24;;;;;;;261.40;248.63;;;;;;;;;;5053918;28;20044;-63
2022/06/26 09:49:51;;;;;;;;;;;;;;;;;;5054102;28;20488;-63
2022/06/26 09:52:19;;;;;;;243.00;231.07;;;;;;;;;;5052740;28;19917;-63
2022/06/26 09:54:46;;;;;;;228.18;217.02;;;;;;;;;;5056700;28;20041;-63
2022/06/26 09:57:12;;;;;;;248.35;236.15;;;;;;;;;;5056164;28;20029;-63
2022/06/26 09:59:39;;;;;;;242.48;230.60;;;;;;;;;;5055828;28;20089;-62
2022/06/26 10:07:37;;;;;;;254.32;241.90;;;;;;;;;;5059200;28;20052;-62
2022/06/26 10:10:03;;;;;;;180.13;171.25;;;;;;;;;;5058709;28;20056;-63
2022/06/26 10:12:29;;;;;;;172.20;163.70;;;;;;;;;;5055969;28;20044;-62
2022/06/26 10:14:55;;;;;;;173.30;164.77;;;;;;;;;;5056877;28;20036;-63
2022/06/26 10:17:23;;;;;;;193.15;183.70;;;;;;;;;;5053855;28;20823;-63
2022/06/26 10:19:54;;;;;;;181.85;172.85;;;;;;;;;;5055999;28;20657;-63
2022/06/26 10:22:20;;;;;;;167.63;159.25;;;;;;;;;;5057850;28;20047;-62
2022/06/26 10:24:49;;;;;;;179.88;170.98;;;;;;;;;;5055089;28;20442;-63
2022/06/26 10:27:15;;;;;;;162.55;154.50;;;;;;;;;;5057949;28;20047;-63
2022/06/26 10:29:41;;;;;;;175.43;166.75;;;;;;;;;;5064863;28;20469;-62
2022/06/26 10:32:07;;;;;;;184.15;175.05;;;;;;;;;;5056669;28;20068;-62
2022/06/26 10:34:33;;;;;;;174.10;165.45;;;;;;;;;;5057664;28;20032;-62
2022/06/26 10:37:10;;;;;;;229.15;218.00;;;;;;;;;;5055141;28;20116;-63
2022/06/26 10:39:38;;;;;;;240.10;228.32;;;;;;;;;;5057720;28;20029;-63
2022/06/26 10:44:56;;;;;;;236.68;224.98;;;;;;;;;;5054652;28;20116;-63
2022/06/26 10:47:22;;;;;;;239.77;228.05;;;;;;;;;;5055863;28;20029;-62
2022/06/26 10:49:52;;;;;;;240.02;228.27;;;;;;;;;;5057214;28;20642;-63
2022/06/26 10:52:27;;;;;;;;;;;;;;;;;;5056670;28;20107;-63
2022/06/26 10:54:54;;;;;;;220.70;209.93;;;;;;;;;;5055522;28;19912;-63
2022/06/26 10:57:32;;;;;;;234.68;223.23;;;;;;;;;;5056153;28;20059;-63
2022/06/26 10:59:59;;;;;;;223.32;212.32;;;;;;;;;;5056034;28;20041;-63
2022/06/26 11:02:25;;;;;;;227.32;216.23;;;;;;;;;;5055178;28;20037;-63
2022/06/26 11:04:51;;;;;;;221.90;211.05;;;;;;;;;;5056498;28;20032;-63
2022/06/26 11:07:18;;;;;;;229.73;218.50;;;;;;;;;;5059546;28;20371;-63
2022/06/26 11:09:44;;;;;;;241.07;229.32;;;;;;;;;;5058006;28;20055;-63
2022/06/26 11:12:09;;;;;;;183.60;174.63;;;;;;;;;;5056749;28;20622;-62
2022/06/26 11:14:34;;;;;;;179.75;170.93;;;;;;;;;;5053594;28;20028;-63
2022/06/26 11:17:00;;;;;;;176.10;167.45;;;;;;;;;;5055817;28;20044;-63
2022/06/26 11:19:29;;;;;;;204.48;194.48;;;;;;;;;;5057512;28;20055;-63
2022/06/26 11:22:07;;;;;;;156.48;148.70;;;;;;;;;;5056764;28;20040;-62
2022/06/26 11:24:33;;;;;;;159.93;151.98;;;;;;;;;;5063686;28;20071;-62
2022/06/26 11:26:59;;;;;;;183.35;174.35;;;;;;;;;;5058786;28;20075;-62
2022/06/26 11:29:24;;;;;;;166.98;158.73;;;;;;;;;;5059123;28;20033;-63
2022/06/26 11:31:50;;;;;;;200.77;190.88;;;;;;;;;;5057590;28;20039;-63
2022/06/26 11:34:16;;;;;;;207.57;197.40;;;;;;;;;;5055919;28;20040;-63
2022/06/26 11:36:53;;;;;;;168.63;160.35;;;;;;;;;;5063266;28;20446;-62
2022/06/26 11:39:18;;;;;;;176.90;168.20;;;;;;;;;;5054666;28;20474;-63
2022/06/26 11:41:45;;;;;;;207.63;197.48;;;;;;;;;;5058745;28;20056;-62
2022/06/26 11:44:10;;;;;;;213.32;202.82;;;;;;;;;;5056094;28;20037;-62
2022/06/26 11:46:36;;;;;;;170.90;162.48;;;;;;;;;;5054495;28;20043;-62
2022/06/26 11:49:02;;;;;;;164.32;156.23;;;;;;;;;;5054109;28;20047;-61
2022/06/26 11:51:31;;;;;;;181.75;172.82;;;;;;;;;;5054792;28;20419;-63
2022/06/26 11:53:57;;;;;;;156.32;148.60;;;;;;;;;;5054312;28;20089;-63
2022/06/26 11:56:22;;;;;;;214.32;203.80;;;;;;;;;;5055815;28;20625;-62
2022/06/26 11:58:50;;;;;;;198.23;188.52;;;;;;;;;;5054626;28;20233;-63
2022/06/26 12:01:16;;;;;;;184.00;174.98;;;;;;;;;;5052635;28;20044;-63
2022/06/26 12:03:47;;;;;;;171.27;162.82;;;;;;;;;;5055195;28;20036;-63
2022/06/26 12:06:25;;;;;;;173.77;165.23;;;;;;;;;;5058781;28;20040;-63
2022/06/26 12:08:50;;;;;;;189.73;180.45;;;;;;;;;;5056831;28;20039;-63
2022/06/26 12:11:16;;;;;;;181.82;172.93;;;;;;;;;;5056996;28;20111;-63
2022/06/26 12:13:43;;;;;;;175.10;166.52;;;;;;;;;;5057877;28;20033;-63
2022/06/26 12:16:10;;;;;;;177.38;168.68;;;;;;;;;;5058957;28;20090;-63
2022/06/26 12:18:39;;;;;;;175.40;166.73;;;;;;;;;;5054497;28;20498;-63
2022/06/26 12:21:34;;;;;;;165.82;157.63;;;;;;;;;;5056625;28;20048;-63
2022/06/26 12:23:59;;;;;;;172.98;164.43;;;;;;;;;;5042010;28;20052;-64
2022/06/26 12:26:24;;;;;;;168.38;160.07;;;;;;;;;;5051626;28;20035;-63
2022/06/26 12:28:53;;;;;;;202.55;192.60;;;;;;;;;;5053993;28;20028;-63
2022/06/26 12:31:20;;;;;;;170.07;161.73;;;;;;;;;;5056098;28;20558;-63
2022/06/26 12:33:47;;;;;;;160.05;152.15;;;;;;;;;;5055352;28;20078;-62
2022/06/26 12:36:13;;;;;;;154.80;147.18;;;;;;;;;;5052552;28;20117;-62
2022/06/26 12:38:39;;;;;;;150.27;142.82;;;;;;;;;;5056051;28;20587;-62
2022/06/26 12:41:16;;;;;;;192.38;182.90;;;;;;;;;;5054794;28;20713;-62
2022/06/26 12:43:51;;;;;;;238.25;226.55;;;;;;;;;;5056360;28;20107;-62
2022/06/26 12:46:18;;;;;;;170.95;162.52;;;;;;;;;;5053963;28;20074;-62
2022/06/26 12:48:43;;;;;;;211.30;200.93;;;;;;;;;;5056695;28;20768;-61
2022/06/26 12:51:10;;;;;;;215.05;204.50;;;;;;;;;;5053424;28;20098;-61
2022/06/26 12:53:37;;;;;;;191.50;182.07;;;;;;;;;;5053900;28;20116;-61
2022/06/26 12:56:03;;;;;;;213.00;202.52;;;;;;;;;;5054266;28;20037;-61
2022/06/26 12:58:29;;;;;;;171.05;162.65;;;;;;;;;;5055712;28;20110;-61
2022/06/26 13:00:54;;;;;;;171.10;162.65;;;;;;;;;;5052834;28;20040;-61
2022/06/26 13:03:21;;;;;;;178.50;169.73;;;;;;;;;;5054205;28;20052;-62
2022/06/26 13:05:47;;;;;;;212.23;201.23;;;;;;;;;;5053798;28;20037;-62
2022/06/26 13:08:14;;;;;;;202.75;192.80;;;;;;;;;;5054667;28;20036;-61
2022/06/26 13:10:40;;;;;;;201.77;191.90;;;;;;;;;;5056593;28;20068;-62
2022/06/26 13:13:06;;;;;;;288.05;273.77;;;;;;;;;;5052481;28;20108;-61
2022/06/26 13:15:31;;;;;;;292.30;277.75;;;;;;;;;;5055232;28;20576;-61
2022/06/26 13:17:56;;;;;;;286.73;272.52;;;;;;;;;;5057344;28;20029;-61
2022/06/26 13:20:22;;;;;;;314.58;298.90;;;;;;;;;;5054449;28;20465;-61
2022/06/26 13:22:47;;;;;;;287.95;273.75;;;;;;;;;;5052805;28;20063;-61
2022/06/26 13:25:13;;;;;;;323.63;307.52;;;;;;;;;;5053492;28;20054;-62
2022/06/26 13:27:38;;;;;;;266.27;253.18;;;;;;;;;;5057673;28;20036;-62
2022/06/26 13:30:05;;;;;;;287.70;273.45;;;;;;;;;;5053637;28;20032;-62
2022/06/26 13:32:30;;;;;;;311.75;296.13;;;;;;;;;;5055192;28;20097;-62
2022/06/26 13:34:56;;;;;;;311.65;296.15;;;;;;;;;;5055884;28;20029;-62
2022/06/26 13:37:21;;;;;;;318.00;302.08;;;;;;;;;;5055143;28;20537;-62
2022/06/26 13:39:46;;;;;;;336.17;319.25;;;;;;;;;;5055193;28;20028;-61
2022/06/26 13:42:12;;;;;;;297.67;283.00;;;;;;;;;;5057213;28;20505;-61
2022/06/26 13:44:37;;;;;;;281.40;267.55;;;;;;;;;;5055227;28;20111;-61
2022/06/26 13:47:03;;;;;;;339.65;322.60;;;;;;;;;;5054667;28;20467;-61
2022/06/26 13:49:28;;;;;;;272.55;259.08;;;;;;;;;;5057525;28;20247;-62
2022/06/26 13:51:54;;;;;;;249.85;237.63;;;;;;;;;;5059637;28;20028;-61
2022/06/26 13:54:19;;;;;;;259.95;247.18;;;;;;;;;;5054718;28;20028;-62
2022/06/26 13:56:45;;;;;;;258.70;246.00;;;;;;;;;;5053292;28;20036;-62
2022/06/26 13:59:10;;;;;;;258.63;245.85;;;;;;;;;;5057954;28;20040;-62
2022/06/26 14:01:36;;;;;;;257.73;245.02;;;;;;;;;;5054976;28;20024;-62
2022/06/26 14:04:01;;;;;;;286.10;271.95;;;;;;;;;;5059009;28;20336;-62
2022/06/26 14:06:26;;;;;;;286.13;271.83;;;;;;;;;;5057157;28;20032;-62
2022/06/26 14:08:52;;;;;;;272.33;258.85;;;;;;;;;;5057084;28;20029;-62
2022/06/26 14:11:19;;;;;;;282.35;268.38;;;;;;;;;;5055764;28;20132;-61
2022/06/26 14:13:44;;;;;;;281.77;267.75;;;;;;;;;;5055808;28;20041;-62
2022/06/26 14:16:09;;;;;;;263.10;250.05;;;;;;;;;;5059005;28;20032;-62